Time;durP1;ratioP1;P1;durP2;ratioP2;P2;SDS_P1;SDS_P2;PMS_P1;PMS_P2;Temp;Humidity;BMP_temperature;BMP_pressure;BME280_temperature;BME280_humidity;BME280_pressure;Samples;Min_cycle;Max_cycle;Signal;HPM_P1;HPM_P2
2022/09/01 00:00:52;;;;;;;25.33;18.92;;;19.70;99.90;;;;;;5100088;28;20109;-76
2022/09/01 00:03:22;;;;;;;27.65;21.67;;;19.70;99.90;;;;;;5100013;28;20039;-76
2022/09/01 00:05:55;;;;;;;29.88;21.42;;;19.60;99.90;;;;;;5099892;28;20072;-76
2022/09/01 00:08:24;;;;;;;29.15;22.05;;;19.60;99.90;;;;;;5099626;28;20040;-80
2022/09/01 00:10:51;;;;;;;28.88;21.80;;;19.60;99.90;;;;;;5100500;28;20078;-76
2022/09/01 00:13:18;;;;;;;26.02;20.77;;;19.50;99.90;;;;;;5100691;28;20044;-77
2022/09/01 00:15:46;;;;;;;28.30;21.48;;;19.50;99.90;;;;;;5098795;28;20048;-77
2022/09/01 00:18:14;;;;;;;32.50;22.38;;;19.40;99.90;;;;;;5099730;28;20488;-77
2022/09/01 00:20:43;;;;;;;32.13;22.00;;;19.40;99.90;;;;;;5099879;28;20044;-78
2022/09/01 00:23:10;;;;;;;29.23;22.10;;;19.40;99.90;;;;;;5099042;28;20078;-78
2022/09/01 00:25:38;;;;;;;27.70;20.27;;;19.40;99.90;;;;;;5099816;28;20044;-76
2022/09/01 00:28:05;;;;;;;28.77;22.65;;;19.40;99.90;;;;;;5100137;28;20050;-76
2022/09/01 00:30:32;;;;;;;33.80;25.35;;;19.40;99.90;;;;;;5099407;28;20061;-77
2022/09/01 00:33:00;;;;;;;39.08;27.40;;;19.40;99.90;;;;;;5098479;28;20055;-76
2022/09/01 00:35:27;;;;;;;34.63;27.58;;;19.50;99.90;;;;;;5099636;28;20127;-76
2022/09/01 00:37:56;;;;;;;32.15;24.38;;;19.50;99.90;;;;;;5098034;28;20070;-75
2022/09/01 00:40:23;;;;;;;31.13;23.75;;;19.50;99.90;;;;;;5097370;28;20541;-77
2022/09/01 00:42:52;;;;;;;36.50;25.60;;;19.50;99.90;;;;;;5095265;28;20067;-76
2022/09/01 00:45:20;;;;;;;38.17;27.17;;;19.50;99.90;;;;;;5095251;28;20060;-77
2022/09/01 00:47:48;;;;;;;34.15;25.05;;;19.50;99.90;;;;;;5096229;28;20522;-76
2022/09/01 00:50:19;;;;;;;33.47;25.42;;;19.50;99.90;;;;;;5094746;28;20131;-77
2022/09/01 00:52:50;;;;;;;39.70;25.92;;;19.60;99.90;;;;;;5096029;28;20036;-77
2022/09/01 00:55:23;;;;;;;36.05;25.65;;;19.70;99.90;;;;;;5096353;28;20119;-77
2022/09/01 00:57:50;;;;;;;35.50;25.30;;;19.70;99.90;;;;;;5094002;28;20491;-77
2022/09/01 01:00:22;;;;;;;40.08;26.15;;;19.70;99.90;;;;;;5095386;28;20081;-77
2022/09/01 01:02:54;;;;;;;34.95;24.42;;;19.70;99.90;;;;;;5094500;28;20048;-78
2022/09/01 01:05:22;;;;;;;36.95;27.17;;;19.70;99.90;;;;;;5095495;28;20036;-77
2022/09/01 01:07:50;;;;;;;35.30;28.70;;;19.70;99.90;;;;;;5095212;28;20047;-77
2022/09/01 01:10:21;;;;;;;41.95;31.85;;;19.70;99.90;;;;;;5095448;28;20067;-78
2022/09/01 01:12:50;;;;;;;50.80;34.45;;;19.70;99.90;;;;;;5094271;28;20056;-78
2022/09/01 01:15:19;;;;;;;52.15;35.33;;;19.60;99.90;;;;;;5093890;28;20139;-77
2022/09/01 01:17:46;;;;;;;43.90;33.15;;;19.60;99.90;;;;;;5094126;28;20070;-77
2022/09/01 01:23:10;;;;;;;50.38;37.67;;;19.60;99.90;;;;;;5094103;28;20166;-77
2022/09/01 01:25:44;;;;;;;50.00;36.38;;;19.60;99.90;;;;;;5093661;28;20109;-76
2022/09/01 01:28:17;;;;;;;52.00;36.20;;;19.60;99.90;;;;;;5094153;28;20078;-77
2022/09/01 01:30:49;;;;;;;50.38;36.35;;;19.50;99.90;;;;;;5094488;28;20082;-76
2022/09/01 01:33:17;;;;;;;54.97;38.50;;;19.50;99.90;;;;;;5094118;28;20105;-77
2022/09/01 01:35:45;;;;;;;52.97;36.80;;;19.40;99.90;;;;;;5095180;28;20562;-78
2022/09/01 01:38:15;;;;;;;51.60;33.17;;;19.40;99.90;;;;;;5094458;28;20036;-76
2022/09/01 01:40:44;;;;;;;47.17;33.97;;;19.40;99.90;;;;;;5093648;28;20415;-77
2022/09/01 01:43:18;;;;;;;49.83;32.70;;;19.40;99.90;;;;;;5102216;28;20044;-75
2022/09/01 01:45:47;;;;;;;49.43;33.90;;;19.40;99.90;;;;;;5102851;28;20043;-76
2022/09/01 01:48:23;;;;;;;48.30;33.25;;;19.30;99.90;;;;;;5094263;28;20048;-77
2022/09/01 01:50:53;;;;;;;45.75;33.50;;;19.30;99.90;;;;;;5093986;28;20052;-77
2022/09/01 01:53:21;;;;;;;45.38;31.65;;;19.30;99.90;;;;;;5094730;28;20044;-78
2022/09/01 01:55:51;;;;;;;44.80;32.30;;;19.30;99.90;;;;;;5093778;28;20048;-75
2022/09/01 01:58:19;;;;;;;46.10;32.78;;;19.30;99.90;;;;;;5094461;28;20043;-75
2022/09/01 02:00:49;;;;;;;43.00;32.78;;;19.30;99.90;;;;;;5093457;28;20064;-77
2022/09/01 02:03:18;;;;;;;42.40;30.05;;;19.30;99.90;;;;;;5093567;28;20101;-76
2022/09/01 02:05:47;;;;;;;44.25;31.98;;;19.30;99.90;;;;;;5093866;28;20044;-76
2022/09/01 02:08:19;;;;;;;44.60;30.52;;;19.40;99.90;;;;;;5099647;28;20036;-78
2022/09/01 02:10:54;;;;;;;43.55;29.52;;;19.50;99.90;;;;;;5097406;28;20083;-76
2022/09/01 02:13:29;;;;;;;44.45;28.17;;;19.50;99.90;;;;;;5097698;28;20097;-77
2022/09/01 02:16:00;;;;;;;44.47;29.42;;;19.60;99.90;;;;;;5108609;28;20050;-76
2022/09/01 02:18:33;;;;;;;43.13;32.03;;;19.60;99.90;;;;;;5109212;28;20066;-76
2022/09/01 02:21:02;;;;;;;41.80;30.13;;;19.70;99.90;;;;;;5109664;28;20066;-77
2022/09/01 02:23:31;;;;;;;45.05;32.58;;;19.70;99.90;;;;;;5104994;28;20112;-77
2022/09/01 02:26:01;;;;;;;42.92;30.83;;;19.70;99.90;;;;;;5094112;28;20040;-77
2022/09/01 02:28:31;;;;;;;44.28;31.98;;;19.70;99.90;;;;;;5093751;28;20491;-77
2022/09/01 02:31:01;;;;;;;47.95;33.33;;;19.70;99.90;;;;;;5103378;28;20040;-78
2022/09/01 02:33:31;;;;;;;54.38;35.17;;;19.80;99.90;;;;;;5105916;28;20064;-75
2022/09/01 02:36:01;;;;;;;51.25;35.72;;;19.80;99.90;;;;;;5106507;28;20044;-76
2022/09/01 02:38:31;;;;;;;62.50;39.97;;;19.80;99.90;;;;;;5108242;28;20047;-76
2022/09/01 02:41:03;;;;;;;62.28;41.58;;;19.80;99.90;;;;;;5106308;28;20052;-76
2022/09/01 02:43:32;;;;;;;65.85;40.72;;;19.80;99.90;;;;;;5095194;28;20046;-76
2022/09/01 02:46:01;;;;;;;62.63;40.92;;;19.80;99.90;;;;;;5097276;28;20127;-78
2022/09/01 02:48:32;;;;;;;63.30;41.22;;;19.80;99.90;;;;;;5097891;28;20056;-77
2022/09/01 02:51:01;;;;;;;63.58;40.47;;;19.80;99.90;;;;;;5097714;28;20044;-77
2022/09/01 02:53:29;;;;;;;60.17;41.80;;;19.70;99.90;;;;;;5097895;28;20496;-77
2022/09/01 02:55:58;;;;;;;65.53;41.50;;;19.70;99.90;;;;;;5094263;28;20069;-77
2022/09/01 02:58:31;;;;;;;63.50;39.65;;;19.70;99.90;;;;;;5094038;28;20037;-77
2022/09/01 03:00:59;;;;;;;58.60;39.80;;;19.80;99.90;;;;;;5093778;28;20048;-77
2022/09/01 03:03:27;;;;;;;63.63;42.30;;;19.70;99.90;;;;;;5092387;28;20048;-78
2022/09/01 03:05:55;;;;;;;47.67;34.55;;;19.70;99.90;;;;;;5092667;28;20074;-77
2022/09/01 03:08:23;;;;;;;45.63;33.55;;;19.70;99.90;;;;;;5092689;28;20063;-76
2022/09/01 03:10:52;;;;;;;47.03;31.15;;;19.70;99.90;;;;;;5095562;28;20059;-76
2022/09/01 03:13:24;;;;;;;40.58;30.65;;;19.70;99.90;;;;;;5097127;28;20040;-77
2022/09/01 03:15:52;;;;;;;42.40;30.40;;;19.70;99.90;;;;;;5093557;28;20036;-77
2022/09/01 03:18:20;;;;;;;41.80;28.98;;;19.70;99.90;;;;;;5092900;28;20040;-77
2022/09/01 03:20:51;;;;;;;40.17;27.60;;;19.70;99.90;;;;;;5096949;28;20483;-77
2022/09/01 03:23:19;;;;;;;39.28;28.80;;;19.70;99.90;;;;;;5104938;28;20036;-76
2022/09/01 03:25:48;;;;;;;39.33;28.13;;;19.60;99.90;;;;;;5102730;28;20052;-77
2022/09/01 03:28:16;;;;;;;42.78;30.00;;;19.60;99.90;;;;;;5103284;28;20077;-76
2022/09/01 03:30:47;;;;;;;38.28;28.92;;;19.60;99.90;;;;;;5106344;28;20074;-77
2022/09/01 03:33:18;;;;;;;37.17;27.92;;;19.50;99.90;;;;;;5108668;28;20131;-77
2022/09/01 03:35:46;;;;;;;37.97;30.38;;;19.50;99.90;;;;;;5104505;28;20055;-78
2022/09/01 03:38:20;;;;;;;38.63;29.13;;;19.50;99.90;;;;;;5106477;28;20040;-77
2022/09/01 03:40:50;;;;;;;38.35;27.92;;;19.50;99.90;;;;;;5114088;28;20054;-79
2022/09/01 03:43:18;;;;;;;34.05;25.83;;;19.40;99.90;;;;;;5117205;28;20070;-78
2022/09/01 03:45:46;;;;;;;35.30;24.83;;;19.40;99.90;;;;;;5114401;28;20620;-79
2022/09/01 03:48:15;;;;;;;32.55;24.90;;;19.40;99.90;;;;;;5105951;28;20041;-78
2022/09/01 03:50:46;;;;;;;29.98;23.80;;;19.40;99.90;;;;;;5110073;28;20109;-80
2022/09/01 03:53:16;;;;;;;29.30;23.45;;;19.40;99.90;;;;;;5108475;28;20044;-79
2022/09/01 03:55:45;;;;;;;34.40;24.13;;;19.30;99.90;;;;;;5113780;28;20030;-78
2022/09/01 03:58:17;;;;;;;32.60;22.88;;;19.30;99.90;;;;;;5119632;28;20036;-77
2022/09/01 04:00:48;;;;;;;33.50;25.15;;;19.30;99.90;;;;;;5118973;28;20024;-77
2022/09/01 04:03:21;;;;;;;33.53;25.23;;;19.30;99.90;;;;;;5102079;28;20071;-79
2022/09/01 04:05:52;;;;;;;25.58;21.10;;;19.30;99.90;;;;;;5108641;28;20062;-79
2022/09/01 04:08:21;;;;;;;29.92;22.38;;;19.30;99.90;;;;;;5099822;28;20068;-80
2022/09/01 04:10:51;;;;;;;27.58;21.60;;;19.20;99.90;;;;;;5105485;28;20052;-80
2022/09/01 04:13:22;;;;;;;27.83;22.42;;;19.20;99.90;;;;;;5104266;28;20101;-80
2022/09/01 04:15:50;;;;;;;27.83;22.58;;;19.20;99.90;;;;;;5105003;28;20108;-80
2022/09/01 04:18:20;;;;;;;27.15;21.10;;;19.20;99.90;;;;;;5105731;28;20141;-78
2022/09/01 04:20:52;;;;;;;26.58;19.13;;;19.20;99.90;;;;;;5108633;28;20034;-81
2022/09/01 04:23:25;;;;;;;29.88;20.80;;;19.20;99.90;;;;;;5099996;28;20048;-81
2022/09/01 04:25:55;;;;;;;27.73;19.70;;;19.20;99.90;;;;;;5104016;28;20121;-79
2022/09/01 04:28:25;;;;;;;24.42;18.80;;;19.20;99.90;;;;;;5104681;28;20422;-79
2022/09/01 04:30:55;;;;;;;25.17;19.60;;;19.20;99.90;;;;;;5099380;28;20049;-80
2022/09/01 04:33:35;;;;;;;21.02;18.30;;;19.30;99.90;;;;;;5102953;28;20044;-79
2022/09/01 04:36:06;;;;;;;24.23;18.80;;;19.30;99.90;;;;;;5107676;28;20078;-78
2022/09/01 04:38:36;;;;;;;21.60;17.13;;;19.30;99.90;;;;;;5108045;28;20032;-81
2022/09/01 04:41:06;;;;;;;24.27;17.27;;;19.30;99.90;;;;;;5105939;28;20044;-78
2022/09/01 04:43:33;;;;;;;21.15;14.90;;;19.40;99.90;;;;;;5102737;28;20046;-78
2022/09/01 04:46:02;;;;;;;23.60;15.52;;;19.50;99.90;;;;;;5099895;28;20040;-76
2022/09/01 04:48:30;;;;;;;21.98;15.93;;;19.50;99.90;;;;;;5098269;28;20047;-78
2022/09/01 04:50:58;;;;;;;18.27;12.65;;;19.60;99.90;;;;;;5098108;28;20052;-77
2022/09/01 04:53:28;;;;;;;22.40;12.43;;;19.60;99.90;;;;;;5098896;28;20048;-78
2022/09/01 04:55:56;;;;;;;23.58;13.98;;;19.70;99.90;;;;;;5100273;28;20052;-79
2022/09/01 04:58:27;;;;;;;21.63;12.15;;;19.70;99.90;;;;;;5099513;28;20538;-77
2022/09/01 05:00:56;;;;;;;17.08;12.60;;;19.80;99.90;;;;;;5099897;28;20062;-77
2022/09/01 05:03:24;;;;;;;15.95;11.63;;;19.80;99.90;;;;;;5117187;28;20048;-79
2022/09/01 05:06:00;;;;;;;18.13;10.75;;;19.90;99.90;;;;;;5102357;28;20048;-77
2022/09/01 05:08:34;;;;;;;15.77;10.57;;;20.00;99.90;;;;;;5100127;28;20448;-77
2022/09/01 05:11:06;;;;;;;20.35;13.07;;;20.10;99.90;;;;;;5098948;28;20642;-77
2022/09/01 05:13:56;;;;;;;21.55;13.73;;;20.30;99.90;;;;;;5094435;28;20062;-77
2022/09/01 05:16:24;;;;;;;40.72;14.15;;;20.30;99.90;;;;;;5102521;28;20040;-76
2022/09/01 05:18:54;;;;;;;62.28;18.60;;;20.30;99.90;;;;;;5099745;28;20036;-78
2022/09/01 05:21:25;;;;;;;20.38;11.13;;;20.40;99.90;;;;;;5095096;28;20054;-77
2022/09/01 05:23:55;;;;;;;74.43;20.08;;;20.40;99.90;;;;;;5092878;28;20052;-76
2022/09/01 05:26:26;;;;;;;40.47;13.80;;;20.40;99.90;;;;;;5094889;28;20503;-77
2022/09/01 05:28:56;;;;;;;61.38;17.70;;;20.40;99.90;;;;;;5106143;28;20577;-77
2022/09/01 05:31:26;;;;;;;30.20;11.23;;;20.40;99.90;;;;;;5093204;28;20945;-77
2022/09/01 05:33:56;;;;;;;15.20;9.40;;;20.50;99.90;;;;;;5092062;28;20043;-77
2022/09/01 05:36:25;;;;;;;36.25;12.65;;;20.60;99.90;;;;;;5090698;28;20130;-77
2022/09/01 05:38:57;;;;;;;13.55;8.95;;;20.80;99.90;;;;;;5092527;28;20491;-77
2022/09/01 05:41:25;;;;;;;11.70;7.82;;;21.10;99.90;;;;;;5092158;28;20066;-76
2022/09/01 05:43:53;;;;;;;15.40;7.78;;;21.10;99.90;;;;;;5092940;28;20048;-74
2022/09/01 05:46:23;;;;;;;10.90;8.57;;;21.40;99.90;;;;;;5093528;28;20051;-75
2022/09/01 05:48:53;;;;;;;11.55;7.72;;;21.50;99.90;;;;;;5089026;28;20040;-76
2022/09/01 05:51:24;;;;;;;12.75;8.30;;;21.30;99.90;;;;;;5093597;28;20075;-75
2022/09/01 05:53:55;;;;;;;19.30;8.00;;;21.40;99.90;;;;;;5094049;28;20040;-76
2022/09/01 05:56:25;;;;;;;28.83;18.95;;;21.50;99.90;;;;;;5092075;28;20048;-76
2022/09/01 05:58:53;;;;;;;12.70;9.02;;;21.40;99.90;;;;;;5081367;28;20404;-75
2022/09/01 06:01:26;;;;;;;13.65;9.95;;;21.40;99.90;;;;;;5078163;28;20040;-78
2022/09/01 06:03:56;;;;;;;11.52;8.77;;;21.40;99.90;;;;;;5093113;28;20044;-77
2022/09/01 06:06:31;;;;;;;15.77;9.17;;;21.40;99.90;;;;;;5092787;28;20097;-76
2022/09/01 06:08:58;;;;;;;13.18;8.02;;;21.30;99.90;;;;;;5092960;28;20046;-76
2022/09/01 06:11:31;;;;;;;17.95;10.48;;;21.10;99.90;;;;;;5092707;28;20055;-75
2022/09/01 06:14:00;;;;;;;12.45;8.65;;;21.10;99.90;;;;;;5081544;28;20068;-76
2022/09/01 06:16:29;;;;;;;12.25;8.32;;;21.00;99.90;;;;;;5082037;28;20407;-75
2022/09/01 06:18:58;;;;;;;11.18;8.07;;;20.90;99.90;;;;;;5074345;28;20155;-76
2022/09/01 06:21:27;;;;;;;13.57;8.55;;;20.90;99.90;;;;;;5072411;28;20075;-76
2022/09/01 06:23:57;;;;;;;13.02;9.80;;;21.10;99.90;;;;;;5090817;28;20090;-76
2022/09/01 06:26:29;;;;;;;12.55;7.20;;;21.10;99.90;;;;;;5090377;28;20097;-76
2022/09/01 06:29:02;;;;;;;11.68;7.15;;;21.20;99.90;;;;;;5075885;28;20132;-77
2022/09/01 06:31:32;;;;;;;11.57;6.45;;;21.20;99.90;;;;;;5078808;28;20415;-77
2022/09/01 06:34:08;;;;;;;10.65;6.78;;;21.20;99.90;;;;;;5072549;28;20060;-75
2022/09/01 06:36:39;;;;;;;8.40;6.85;;;21.30;99.90;;;;;;5083164;28;20036;-75
2022/09/01 06:39:08;;;;;;;13.45;6.93;;;21.40;99.90;;;;;;5088942;28;20040;-76
2022/09/01 06:41:38;;;;;;;15.90;7.93;;;21.40;99.90;;;;;;5078795;28;20040;-76
2022/09/01 06:44:10;;;;;;;11.27;6.82;;;21.50;99.90;;;;;;5098603;28;20043;-76
2022/09/01 06:46:43;;;;;;;14.05;7.25;;;21.40;99.90;;;;;;5098619;28;20127;-75
2022/09/01 06:49:11;;;;;;;10.60;6.50;;;21.40;99.90;;;;;;5100250;28;20055;-75
2022/09/01 06:51:38;;;;;;;17.17;6.75;;;21.40;99.90;;;;;;5097704;28;20048;-75
2022/09/01 06:54:06;;;;;;;14.57;6.82;;;21.40;99.90;;;;;;5091848;28;20048;-77
2022/09/01 06:56:35;;;;;;;12.90;7.47;;;21.30;99.90;;;;;;5087557;28;20049;-76
2022/09/01 06:59:06;;;;;;;10.27;7.38;;;21.40;99.90;;;;;;5090081;28;20067;-75
2022/09/01 07:01:38;;;;;;;8.05;5.50;;;21.60;99.90;;;;;;5072227;28;20055;-76
2022/09/01 07:04:05;;;;;;;9.57;5.78;;;21.90;99.90;;;;;;5090279;28;20555;-76
2022/09/01 07:06:40;;;;;;;9.20;5.57;;;22.10;99.90;;;;;;5091351;28;20411;-76
2022/09/01 07:09:17;;;;;;;13.23;5.50;;;22.20;60.70;;;;;;5091845;28;20110;-77
2022/09/01 07:11:54;;;;;;;9.02;6.35;;;22.50;1.00;;;;;;5091555;28;20044;-75
2022/09/01 07:14:23;;;;;;;11.05;6.03;;;22.50;1.00;;;;;;5093649;28;20036;-77
2022/09/01 07:16:51;;;;;;;9.35;5.43;;;22.90;1.00;;;;;;5093275;28;20116;-74
2022/09/01 07:19:19;;;;;;;11.40;5.00;;;23.20;99.90;;;;;;5091831;28;20572;-76
2022/09/01 07:21:54;;;;;;;14.43;4.70;;;23.40;1.00;;;;;;5078154;28;20048;-76
2022/09/01 07:24:22;;;;;;;8.07;4.63;;;23.50;1.00;;;;;;5108150;28;20078;-75
2022/09/01 07:27:26;;;;;;;8.05;5.30;;;23.60;99.90;;;;;;5072833;28;20047;-77
2022/09/01 07:29:56;;;;;;;10.13;4.57;;;23.50;1.00;;;;;;5090957;28;20567;-76
2022/09/01 07:32:24;;;;;;;13.70;8.10;;;23.40;1.00;;;;;;5082321;28;20040;-76
2022/09/01 07:34:52;;;;;;;10.70;6.10;;;23.00;1.00;;;;;;5091769;28;20048;-75
2022/09/01 07:37:21;;;;;;;13.52;6.25;;;22.90;12.30;;;;;;5081002;28;20516;-76
2022/09/01 07:39:49;;;;;;;10.63;4.90;;;22.80;1.00;;;;;;5071804;28;20498;-77
2022/09/01 07:42:27;;;;;;;9.63;6.00;;;22.70;1.00;;;;;;5087639;28;20093;-74
2022/09/01 07:45:24;;;;;;;;;;;22.70;1.00;;;;;;5065049;28;20048;-76
2022/09/01 07:48:02;;;;;;;6.30;5.05;;;22.80;1.00;;;;;;5090991;28;19920;-76
2022/09/01 07:50:34;;;;;;;14.20;6.10;;;22.90;99.90;;;;;;5082917;28;20053;-75
2022/09/01 07:53:04;;;;;;;8.68;4.68;;;22.90;1.00;;;;;;5080317;28;20059;-75
2022/09/01 07:55:33;;;;;;;9.98;5.35;;;22.90;99.90;;;;;;5084552;28;20071;-75
2022/09/01 07:58:02;;;;;;;11.13;4.88;;;22.70;99.90;;;;;;5091524;28;20502;-76
2022/09/01 08:00:33;;;;;;;8.93;5.68;;;22.60;1.00;;;;;;5091062;28;20122;-75
2022/09/01 08:03:05;;;;;;;10.93;5.45;;;22.50;1.00;;;;;;5091278;28;20407;-75
2022/09/01 08:05:34;;;;;;;9.80;5.95;;;22.30;99.90;;;;;;5092534;28;20032;-76
2022/09/01 08:08:02;;;;;;;8.48;4.68;;;22.20;1.00;;;;;;5093059;28;20051;-75
2022/09/01 08:10:33;;;;;;;8.27;4.80;;;22.10;1.00;;;;;;5095861;28;20040;-75
2022/09/01 08:13:00;;;;;;;10.90;5.82;;;22.00;99.90;;;;;;5096550;28;20514;-77
2022/09/01 08:15:28;;;;;;;13.20;6.18;;;22.00;29.40;;;;;;5095143;28;20043;-76
2022/09/01 08:17:57;;;;;;;21.30;6.35;;;22.00;1.00;;;;;;5094815;28;20041;-75
2022/09/01 08:20:26;;;;;;;6.57;4.60;;;22.00;99.90;;;;;;5091633;28;20071;-76
2022/09/01 08:23:11;;;;;;;11.98;4.85;;;22.10;1.00;;;;;;5093944;28;20048;-76
2022/09/01 08:25:42;;;;;;;9.45;4.90;;;22.20;99.90;;;;;;5095291;28;20109;-76
2022/09/01 08:28:10;;;;;;;9.05;5.03;;;22.10;99.90;;;;;;5082461;28;20066;-76
2022/09/01 08:30:41;;;;;;;10.80;5.05;;;21.80;99.90;;;;;;5111150;28;20040;-76
2022/09/01 08:33:10;;;;;;;9.60;5.80;;;21.90;99.90;;;;;;5106613;28;20110;-77
2022/09/01 08:35:41;;;;;;;8.00;5.57;;;22.10;99.90;;;;;;5107420;28;20055;-76
2022/09/01 08:38:09;;;;;;;10.13;6.05;;;22.40;1.00;;;;;;5102331;28;20097;-75
2022/09/01 08:40:38;;;;;;;17.90;13.80;;;22.60;99.90;;;;;;5095536;28;20056;-76
2022/09/01 08:43:14;;;;;;;11.05;9.57;;;22.80;99.90;;;;;;5080773;28;20452;-75
2022/09/01 08:45:48;;;;;;;12.07;6.82;;;22.80;99.90;;;;;;5077555;28;20087;-77
2022/09/01 08:48:21;;;;;;;12.63;5.45;;;22.80;91.70;;;;;;5074913;28;20087;-77
2022/09/01 08:50:54;;;;;;;8.18;5.10;;;23.10;14.50;;;;;;5074372;28;20044;-76
2022/09/01 08:53:43;;;;;;;9.85;4.60;;;23.30;1.00;;;;;;5086357;28;20143;-73
2022/09/01 08:56:12;;;;;;;11.90;8.68;;;23.70;1.00;;;;;;5088426;28;20048;-74
2022/09/01 08:58:39;;;;;;;10.50;5.82;;;23.90;99.90;;;;;;5091975;28;20101;-75
2022/09/01 09:01:40;;;;;;;13.50;7.80;;;23.90;1.00;;;;;;5084095;28;20044;-76
2022/09/01 09:04:22;;;;;;;12.23;7.72;;;24.00;1.00;;;;;;5080094;28;20040;-76
2022/09/01 09:07:02;;;;;;;11.93;6.28;;;24.10;1.00;;;;;;5088952;28;20051;-76
2022/09/01 09:09:37;;;;;;;15.82;7.82;;;23.70;37.00;;;;;;5095743;28;20060;-76
2022/09/01 09:12:27;;;;;;;14.00;7.25;;;23.60;1.00;;;;;;5095086;28;20054;-77
2022/09/01 09:15:15;;;;;;;7.20;4.88;;;23.70;1.00;;;;;;5097035;28;20040;-75
2022/09/01 09:17:47;;;;;;;15.52;8.98;;;23.50;99.90;;;;;;5094868;28;20047;-76
2022/09/01 09:20:17;;;;;;;11.10;5.78;;;23.40;99.90;;;;;;5100286;28;20476;-76
2022/09/01 09:22:45;;;;;;;13.18;5.63;;;23.40;1.00;;;;;;5099941;28;20044;-77
2022/09/01 09:25:15;;;;;;;8.65;5.55;;;23.20;1.00;;;;;;5094131;28;20040;-75
2022/09/01 09:27:45;;;;;;;9.57;6.85;;;23.20;99.90;;;;;;5078783;28;20043;-76
2022/09/01 09:30:16;;;;;;;10.25;7.82;;;23.10;99.90;;;;;;5093299;28;20047;-77
2022/09/01 09:32:48;;;;;;;10.95;7.82;;;23.20;99.90;;;;;;5093280;28;20052;-77
2022/09/01 09:35:27;;;;;;;11.15;5.80;;;23.10;1.00;;;;;;5094403;28;20036;-76
2022/09/01 09:37:55;;;;;;;8.93;5.68;;;23.10;1.00;;;;;;5094140;28;20043;-77
2022/09/01 09:40:24;;;;;;;13.88;8.52;;;23.20;99.90;;;;;;5123738;22;20086;-77
2022/09/01 09:43:07;;;;;;;12.82;6.97;;;23.10;99.90;;;;;;5097499;28;20052;-78
2022/09/01 09:45:38;;;;;;;11.50;5.18;;;22.90;99.90;;;;;;5089420;28;20090;-77
2022/09/01 09:48:08;;;;;;;11.45;6.22;;;22.80;1.00;;;;;;5089262;28;20050;-77
2022/09/01 09:50:39;;;;;;;15.57;9.07;;;22.90;1.00;;;;;;5082545;28;20039;-76
2022/09/01 09:53:16;;;;;;;16.85;8.55;;;23.10;1.00;;;;;;5103882;28;20051;-77
2022/09/01 09:56:00;;;;;;;9.48;5.85;;;23.20;99.90;;;;;;5127938;28;20065;-77
2022/09/01 09:58:34;;;;;;;9.55;5.57;;;23.30;1.00;;;;;;5109702;28;20051;-76
2022/09/01 10:01:06;;;;;;;11.07;5.50;;;23.30;99.90;;;;;;5104216;28;20074;-77
2022/09/01 10:03:42;;;;;;;13.68;6.93;;;23.50;1.00;;;;;;5101651;28;20036;-77
2022/09/01 10:06:31;;;;;;;9.07;5.18;;;23.70;1.00;;;;;;5102364;28;20047;-76
2022/09/01 10:08:59;;;;;;;8.43;4.40;;;23.70;99.90;;;;;;5106947;28;20048;-76
2022/09/01 10:11:31;;;;;;;14.07;5.43;;;23.70;1.00;;;;;;5104537;28;20048;-76
2022/09/01 10:13:58;;;;;;;11.18;4.38;;;23.60;1.00;;;;;;5090033;28;20391;-76
2022/09/01 10:16:30;;;;;;;9.70;4.20;;;23.50;99.90;;;;;;5108162;28;20069;-78
2022/09/01 10:19:00;;;;;;;12.13;5.15;;;23.70;1.00;;;;;;5086113;28;20048;-77
2022/09/01 10:21:34;;;;;;;11.95;6.93;;;23.40;99.90;;;;;;5099361;28;20405;-77
2022/09/01 10:24:18;;;;;;;8.52;4.60;;;23.40;99.90;;;;;;5100899;28;20042;-76
2022/09/01 10:26:50;;;;;;;14.25;5.47;;;22.80;1.00;;;;;;5080195;28;20047;-76
2022/09/01 10:29:25;;;;;;;6.25;4.15;;;22.90;1.00;;;;;;5098558;28;20044;-77
2022/09/01 10:31:55;;;;;;;9.33;5.73;;;23.20;1.00;;;;;;5095613;28;20075;-77
2022/09/01 10:34:24;;;;;;;12.30;5.05;;;23.70;99.90;;;;;;5116238;28;20046;-77
2022/09/01 10:36:53;;;;;;;11.63;4.97;;;24.10;1.00;;;;;;5086933;28;20041;-78
2022/09/01 10:39:21;;;;;;;8.13;4.22;;;24.50;99.90;;;;;;5097751;28;20066;-75
2022/09/01 10:41:52;;;;;;;6.88;4.78;;;24.60;99.90;;;;;;5103484;28;20048;-77
2022/09/01 10:44:22;;;;;;;8.43;4.22;;;24.40;1.00;;;;;;5077755;28;20040;-78
2022/09/01 10:46:51;;;;;;;7.10;4.32;;;24.30;99.90;;;;;;5096103;28;20364;-77
2022/09/01 10:49:39;;;;;;;8.30;4.68;;;24.10;99.90;;;;;;5108910;28;20381;-76
2022/09/01 10:52:08;;;;;;;6.80;4.40;;;24.10;1.00;;;;;;5114795;28;20052;-77
2022/09/01 10:54:56;;;;;;;16.33;6.65;;;23.90;1.00;;;;;;5092487;28;20055;-77
2022/09/01 10:57:50;;;;;;;8.70;4.95;;;23.90;99.90;;;;;;5091408;28;20134;-78
2022/09/01 11:00:52;;;;;;;8.88;4.93;;;23.80;1.00;;;;;;5113844;28;20049;-76
2022/09/01 11:03:39;;;;;;;11.52;5.43;;;23.60;99.90;;;;;;5076991;28;20075;-77
2022/09/01 11:06:07;;;;;;;8.20;5.22;;;23.40;1.00;;;;;;5070983;28;20105;-76
2022/09/01 11:08:46;;;;;;;7.32;5.03;;;23.10;99.90;;;;;;5098961;28;20066;-76
2022/09/01 11:11:28;;;;;;;7.55;5.47;;;22.90;1.00;;;;;;5085060;28;20055;-76
2022/09/01 11:13:57;;;;;;;9.13;6.40;;;23.00;1.00;;;;;;5110043;28;20047;-77
2022/09/01 11:16:31;;;;;;;12.50;6.25;;;23.10;1.00;;;;;;5115967;28;20044;-76
2022/09/01 11:19:31;;;;;;;13.23;6.43;;;23.00;1.00;;;;;;5100624;28;20074;-78
2022/09/01 11:22:11;;;;;;;16.13;10.18;;;23.10;1.00;;;;;;5097983;28;20111;-77
2022/09/01 11:25:12;;;;;;;12.40;7.47;;;23.10;1.00;;;;;;5111013;28;20036;-76
2022/09/01 11:28:35;;;;;;;9.80;6.20;;;23.10;99.90;;;;;;5110661;28;20036;-75
2022/09/01 11:31:14;;;;;;;11.05;6.05;;;22.90;1.00;;;;;;5075034;28;20066;-78
2022/09/01 11:33:50;;;;;;;8.85;6.55;;;22.70;1.00;;;;;;5067606;28;20110;-75
2022/09/01 11:36:29;;;;;;;9.82;4.75;;;22.60;1.00;;;;;;5101314;28;20051;-76
2022/09/01 11:39:04;;;;;;;12.80;8.63;;;22.50;1.00;;;;;;5104389;28;20063;-76
2022/09/01 11:41:44;;;;;;;10.65;5.63;;;22.50;1.00;;;;;;5105687;28;20560;-79
2022/09/01 11:44:15;;;;;;;9.73;5.03;;;22.30;1.00;;;;;;5118207;28;20036;-78
2022/09/01 11:46:44;;;;;;;11.00;5.35;;;22.20;1.00;;;;;;5137162;28;20043;-77
2022/09/01 11:49:27;;;;;;;8.23;5.00;;;22.10;1.00;;;;;;5106498;28;20044;-76
2022/09/01 11:51:55;;;;;;;11.65;5.93;;;22.00;99.90;;;;;;5115084;28;20044;-76
2022/09/01 11:54:23;;;;;;;15.30;5.95;;;21.90;99.90;;;;;;5095591;28;20043;-77
2022/09/01 11:56:55;;;;;;;8.77;4.68;;;21.60;99.90;;;;;;5086217;28;20076;-77
2022/09/01 11:59:34;;;;;;;9.15;5.50;;;21.40;1.00;;;;;;5092387;28;20043;-76
2022/09/01 12:02:02;;;;;;;12.48;6.35;;;21.00;1.00;;;;;;5111201;28;20036;-75
2022/09/01 12:04:35;;;;;;;10.55;6.57;;;20.80;65.00;;;;;;5086751;28;20068;-75
2022/09/01 12:07:05;;;;;;;20.65;8.43;;;20.70;4.00;;;;;;5118411;28;20101;-76
2022/09/01 12:09:35;;;;;;;7.57;6.22;;;20.20;99.90;;;;;;5102619;28;20047;-76
2022/09/01 12:12:05;;;;;;;9.57;6.50;;;20.00;99.90;;;;;;5119590;28;20093;-76
2022/09/01 12:14:33;;;;;;;12.65;7.40;;;20.00;99.90;;;;;;5120843;28;20031;-75
2022/09/01 12:17:04;;;;;;;12.13;7.97;;;19.90;99.90;;;;;;5102522;28;20505;-75
2022/09/01 12:19:33;;;;;;;12.80;9.00;;;19.60;99.90;;;;;;5120148;28;20069;-75
2022/09/01 12:22:03;;;;;;;11.68;8.82;;;19.50;99.90;;;;;;5101719;28;20148;-75
2022/09/01 12:24:34;;;;;;;11.60;7.90;;;19.60;99.90;;;;;;5121116;28;20101;-75
2022/09/01 12:27:04;;;;;;;13.20;8.05;;;19.40;99.90;;;;;;5108808;28;20521;-78
2022/09/01 12:29:32;;;;;;;12.50;7.85;;;19.30;99.90;;;;;;5118211;28;20054;-76
2022/09/01 12:32:00;;;;;;;12.30;8.25;;;19.30;99.90;;;;;;5112772;28;20073;-76
2022/09/01 12:34:38;;;;;;;9.88;7.68;;;18.90;99.90;;;;;;5121570;28;20813;-75
2022/09/01 12:37:09;;;;;;;12.38;8.85;;;18.70;99.90;;;;;;5110647;28;20047;-74
2022/09/01 12:39:39;;;;;;;10.05;8.82;;;18.40;99.90;;;;;;5110098;28;20050;-74
2022/09/01 12:42:11;;;;;;;17.63;11.40;;;18.30;99.90;;;;;;5106389;28;20051;-76
2022/09/01 12:44:50;;;;;;;15.00;11.35;;;18.40;99.90;;;;;;5108570;28;20044;-76
2022/09/01 12:47:49;;;;;;;19.38;13.07;;;18.50;99.90;;;;;;5106935;28;20040;-76
2022/09/01 12:50:44;;;;;;;18.63;12.80;;;18.60;99.90;;;;;;5099569;28;20044;-76
2022/09/01 12:53:21;;;;;;;13.77;10.88;;;18.80;99.90;;;;;;5084599;28;20464;-76
2022/09/01 12:56:07;;;;;;;13.25;10.95;;;18.90;99.90;;;;;;5080554;28;20044;-77
2022/09/01 12:58:36;;;;;;;19.73;14.38;;;18.90;99.90;;;;;;5085153;28;20036;-75
2022/09/01 13:01:06;;;;;;;18.63;13.77;;;19.00;99.90;;;;;;5115306;28;20036;-77
2022/09/01 13:03:35;;;;;;;13.82;10.55;;;19.10;99.90;;;;;;5116027;28;20417;-77